Time;durP1;ratioP1;P1;durP2;ratioP2;P2;SDS_P1;SDS_P2;PMS_P1;PMS_P2;Temp;Humidity;BMP_temperature;BMP_pressure;BME280_temperature;BME280_humidity;BME280_pressure;Samples;Min_cycle;Max_cycle;Signal;HPM_P1;HPM_P2
2022/01/04 00:00:40;;;;;;;12.53;8.87;;;7.70;99.90;;;;;;5075991;28;20177;-69
2022/01/04 00:03:06;;;;;;;11.43;8.87;;;7.60;99.90;;;;;;5074590;28;20202;-69
2022/01/04 00:05:32;;;;;;;12.13;8.33;;;7.60;99.90;;;;;;5074579;28;20186;-69
2022/01/04 00:07:59;;;;;;;10.93;8.37;;;7.60;99.90;;;;;;5075819;28;20201;-69
2022/01/04 00:10:27;;;;;;;13.77;7.83;;;7.60;99.90;;;;;;5074588;28;20178;-69
2022/01/04 00:15:41;;;;;;;12.70;7.13;;;7.50;99.90;;;;;;5075970;28;20208;-69
2022/01/04 00:18:07;;;;;;;7.83;6.47;;;7.50;99.90;;;;;;5075572;28;20173;-69
2022/01/04 00:20:33;;;;;;;10.90;7.27;;;7.50;99.90;;;;;;5075835;28;20258;-69
2022/01/04 00:22:58;;;;;;;9.50;7.50;;;7.40;99.90;;;;;;5074138;28;20315;-69
2022/01/04 00:25:24;;;;;;;10.60;7.30;;;7.50;99.90;;;;;;5075373;28;20243;-70
2022/01/04 00:27:50;;;;;;;9.27;6.30;;;7.40;99.90;;;;;;5075243;28;20197;-69
2022/01/04 00:30:16;;;;;;;7.83;5.83;;;7.40;99.90;;;;;;5075449;28;20192;-70
2022/01/04 00:32:42;;;;;;;8.77;6.47;;;7.30;99.90;;;;;;5075232;28;20243;-69
2022/01/04 00:35:08;;;;;;;12.73;5.67;;;7.30;99.90;;;;;;5075361;28;20673;-69
2022/01/04 00:37:34;;;;;;;7.80;5.63;;;7.40;99.90;;;;;;5074040;28;20190;-69
2022/01/04 00:40:00;;;;;;;5.33;4.83;;;7.30;99.90;;;;;;5073915;28;20193;-69
2022/01/04 00:42:26;;;;;;;7.83;5.93;;;7.30;99.90;;;;;;5074868;28;20197;-69
2022/01/04 00:44:51;;;;;;;10.77;5.70;;;7.30;99.90;;;;;;5075204;28;20231;-69
2022/01/04 00:47:20;;;;;;;5.70;5.13;;;7.30;99.90;;;;;;5075003;28;20201;-69
2022/01/04 00:49:46;;;;;;;6.43;5.33;;;7.30;99.90;;;;;;5075278;28;20256;-69
2022/01/04 00:52:16;;;;;;;8.57;5.97;;;7.20;99.90;;;;;;5075032;28;20224;-69
2022/01/04 00:54:42;;;;;;;8.70;5.90;;;7.20;99.90;;;;;;5075414;28;20598;-69
2022/01/04 00:57:08;;;;;;;8.77;5.70;;;7.20;99.90;;;;;;5073667;28;20170;-69
2022/01/04 00:59:33;;;;;;;9.43;5.07;;;7.20;99.90;;;;;;5074755;28;20697;-69
2022/01/04 01:01:59;;;;;;;9.43;5.80;;;7.20;99.90;;;;;;5073474;28;20201;-69
2022/01/04 01:04:25;;;;;;;6.20;5.57;;;7.10;99.90;;;;;;5073506;28;20182;-69
2022/01/04 01:06:51;;;;;;;6.60;5.97;;;7.10;99.90;;;;;;5073312;28;20205;-69
2022/01/04 01:09:16;;;;;;;6.90;5.70;;;7.20;99.90;;;;;;5074659;28;20545;-69
2022/01/04 01:11:42;;;;;;;6.43;5.73;;;7.10;99.90;;;;;;5074740;28;20178;-70
2022/01/04 01:14:08;;;;;;;6.63;5.80;;;7.10;99.90;;;;;;5073310;28;20680;-69
2022/01/04 01:16:34;;;;;;;7.53;5.57;;;7.10;99.90;;;;;;5073207;28;20182;-69
2022/01/04 01:19:00;;;;;;;6.90;6.13;;;7.10;99.90;;;;;;5074346;28;20247;-69
2022/01/04 01:21:25;;;;;;;9.83;6.00;;;7.10;99.90;;;;;;5074879;28;20177;-69
2022/01/04 01:23:51;;;;;;;9.07;6.20;;;7.10;99.90;;;;;;5074224;28;20631;-69
2022/01/04 01:26:17;;;;;;;8.67;5.73;;;7.10;99.90;;;;;;5074073;28;20185;-69
2022/01/04 01:28:43;;;;;;;5.93;5.33;;;7.10;99.90;;;;;;5074248;28;20206;-69
2022/01/04 01:31:09;;;;;;;6.60;5.83;;;7.00;99.90;;;;;;5074246;28;20213;-69
2022/01/04 01:33:35;;;;;;;7.13;6.00;;;7.00;99.90;;;;;;5074073;28;20737;-69
2022/01/04 01:36:01;;;;;;;6.70;5.80;;;7.00;99.90;;;;;;5074029;28;20254;-69
2022/01/04 01:38:27;;;;;;;7.93;6.30;;;7.00;99.90;;;;;;5072696;28;20643;-69
2022/01/04 01:40:53;;;;;;;7.90;7.00;;;7.00;99.90;;;;;;5074002;28;20177;-70
2022/01/04 01:43:20;;;;;;;8.60;7.57;;;7.00;99.90;;;;;;5073866;28;20312;-69
2022/01/04 01:45:46;;;;;;;12.60;7.63;;;7.00;99.90;;;;;;5073834;28;20642;-69
2022/01/04 01:48:12;;;;;;;11.10;8.63;;;7.00;99.90;;;;;;5073805;28;20193;-69
2022/01/04 01:50:38;;;;;;;10.07;7.97;;;7.00;99.90;;;;;;5074208;28;20178;-69
2022/01/04 01:53:04;;;;;;;10.23;8.10;;;7.00;99.90;;;;;;5073459;28;20208;-69
2022/01/04 01:55:31;;;;;;;8.40;7.40;;;7.00;99.90;;;;;;5073996;28;20202;-69
2022/01/04 01:57:57;;;;;;;10.97;7.30;;;7.00;99.90;;;;;;5074394;28;20308;-69
2022/01/04 02:00:26;;;;;;;7.53;6.57;;;7.00;99.90;;;;;;5072814;28;20182;-69
2022/01/04 02:02:53;;;;;;;8.30;6.60;;;7.00;99.90;;;;;;5073743;28;20276;-69
2022/01/04 02:05:19;;;;;;;7.80;7.00;;;7.00;99.90;;;;;;5072322;28;20631;-69
2022/01/04 02:07:45;;;;;;;7.33;6.60;;;7.00;99.90;;;;;;5072373;28;20208;-69
2022/01/04 02:10:12;;;;;;;9.60;7.30;;;7.00;99.90;;;;;;5073946;28;20169;-69
2022/01/04 02:12:40;;;;;;;10.67;7.33;;;7.00;99.90;;;;;;5073391;28;20190;-69
2022/01/04 02:15:10;;;;;;;9.30;7.13;;;6.90;99.90;;;;;;5073540;28;20523;-69
2022/01/04 02:17:36;;;;;;;8.00;7.20;;;6.90;99.90;;;;;;5072136;28;20186;-69
2022/01/04 02:20:03;;;;;;;8.67;6.77;;;6.90;99.90;;;;;;5073503;28;20680;-69
2022/01/04 02:22:31;;;;;;;10.17;7.57;;;6.90;99.90;;;;;;5072434;28;20611;-69
2022/01/04 02:24:57;;;;;;;11.77;7.70;;;6.80;99.90;;;;;;5073422;28;20219;-69
2022/01/04 02:27:23;;;;;;;9.97;7.90;;;6.80;99.90;;;;;;5073142;28;20213;-69
2022/01/04 02:29:50;;;;;;;11.20;8.57;;;6.80;99.90;;;;;;5073266;28;20173;-69
2022/01/04 02:32:16;;;;;;;9.67;7.87;;;6.80;99.90;;;;;;5073323;28;20214;-69
2022/01/04 02:34:50;;;;;;;12.93;8.80;;;6.80;99.90;;;;;;5072028;28;20259;-70
2022/01/04 02:37:25;;;;;;;10.67;7.30;;;6.80;99.90;;;;;;5073525;28;20280;-69
2022/01/04 02:39:52;;;;;;;12.53;8.70;;;6.80;99.90;;;;;;5073576;28;20169;-69
2022/01/04 02:42:18;;;;;;;13.80;8.07;;;6.90;99.90;;;;;;5072063;28;20292;-69
2022/01/04 02:44:44;;;;;;;11.00;8.10;;;6.90;99.90;;;;;;5073613;28;20688;-69
2022/01/04 02:47:10;;;;;;;8.87;7.77;;;6.90;99.90;;;;;;5073124;28;20201;-69
2022/01/04 02:49:36;;;;;;;10.60;8.07;;;6.90;99.90;;;;;;5071958;28;20220;-69
2022/01/04 02:52:02;;;;;;;10.13;7.50;;;6.90;99.90;;;;;;5073224;28;20217;-69
2022/01/04 02:54:28;;;;;;;8.50;7.20;;;6.90;99.90;;;;;;5072798;28;20182;-70
2022/01/04 02:56:54;;;;;;;10.17;7.40;;;6.80;99.90;;;;;;5074106;28;20609;-69
2022/01/04 02:59:20;;;;;;;7.93;7.13;;;6.80;99.90;;;;;;5073807;28;20653;-69
2022/01/04 03:01:46;;;;;;;9.67;6.60;;;6.80;99.90;;;;;;5071902;28;20182;-69
2022/01/04 03:04:12;;;;;;;6.97;6.27;;;6.80;99.90;;;;;;5074807;28;20178;-69
2022/01/04 03:06:38;;;;;;;7.63;6.87;;;6.70;99.90;;;;;;5077018;28;20264;-69
2022/01/04 03:09:05;;;;;;;9.23;7.03;;;6.70;99.90;;;;;;5077078;28;20529;-69
2022/01/04 03:11:32;;;;;;;8.83;6.90;;;6.70;99.90;;;;;;5075772;28;20231;-69
2022/01/04 03:13:58;;;;;;;8.17;6.77;;;6.70;99.90;;;;;;5076845;28;20193;-69
2022/01/04 03:16:24;;;;;;;8.10;6.83;;;6.70;99.90;;;;;;5076981;28;20700;-69
2022/01/04 03:19:09;;;;;;;8.20;7.03;;;6.70;99.90;;;;;;5077176;28;20209;-69
2022/01/04 03:21:43;;;;;;;10.73;7.20;;;6.70;99.90;;;;;;5075426;28;20166;-69
2022/01/04 03:24:11;;;;;;;9.20;7.40;;;6.70;99.90;;;;;;5076761;28;20605;-70
2022/01/04 03:26:38;;;;;;;10.73;8.00;;;6.70;99.90;;;;;;5075217;28;20670;-67
2022/01/04 03:29:05;;;;;;;9.77;7.70;;;6.60;99.90;;;;;;5075230;28;20209;-68
2022/01/04 03:31:31;;;;;;;9.47;7.63;;;6.60;99.90;;;;;;5075250;28;20243;-68
2022/01/04 03:33:57;;;;;;;12.33;8.37;;;6.60;99.90;;;;;;5076376;28;20682;-68
2022/01/04 03:36:24;;;;;;;12.37;7.30;;;6.60;99.90;;;;;;5076877;28;20173;-68
2022/01/04 03:38:54;;;;;;;9.70;7.77;;;6.60;99.90;;;;;;5075032;28;20177;-68
2022/01/04 03:41:22;;;;;;;9.07;7.47;;;6.60;99.90;;;;;;5075015;28;20264;-67
2022/01/04 03:43:48;;;;;;;9.37;7.90;;;6.60;99.90;;;;;;5076166;28;20761;-67
2022/01/04 03:46:14;;;;;;;8.90;7.57;;;6.50;99.90;;;;;;5076183;28;20174;-67
2022/01/04 03:48:40;;;;;;;9.30;7.90;;;6.50;99.90;;;;;;5076055;28;20267;-67
2022/01/04 03:51:07;;;;;;;10.47;8.20;;;6.50;99.90;;;;;;5076118;28;20253;-67
2022/01/04 03:53:33;;;;;;;10.30;7.60;;;6.50;99.90;;;;;;5076453;28;20193;-67
2022/01/04 03:56:00;;;;;;;10.83;8.37;;;6.50;99.90;;;;;;5076062;28;20174;-67
2022/01/04 03:58:25;;;;;;;11.20;8.63;;;6.50;99.90;;;;;;5075923;28;20253;-68
2022/01/04 04:00:51;;;;;;;9.90;8.17;;;6.50;99.90;;;;;;5075966;28;20697;-68
2022/01/04 04:03:17;;;;;;;12.23;8.53;;;6.50;99.90;;;;;;5075851;28;20201;-68
2022/01/04 04:05:43;;;;;;;10.03;8.57;;;6.50;99.90;;;;;;5076124;28;20248;-68
2022/01/04 04:08:09;;;;;;;14.10;8.93;;;6.50;99.90;;;;;;5075739;28;20273;-68
2022/01/04 04:10:35;;;;;;;11.37;9.17;;;6.50;99.90;;;;;;5074539;28;20169;-68
2022/01/04 04:13:02;;;;;;;11.53;9.37;;;6.50;99.90;;;;;;5074394;28;20565;-68
2022/01/04 04:15:28;;;;;;;11.93;9.53;;;6.50;99.90;;;;;;5074999;28;20241;-68
2022/01/04 04:17:53;;;;;;;11.13;9.30;;;6.50;99.90;;;;;;5074178;28;20181;-68
2022/01/04 04:20:20;;;;;;;10.57;8.80;;;6.60;99.90;;;;;;5074336;28;20162;-68
2022/01/04 04:22:46;;;;;;;11.77;9.10;;;6.60;99.90;;;;;;5075466;28;20724;-68
2022/01/04 04:25:13;;;;;;;13.50;9.70;;;6.60;99.90;;;;;;5075571;28;20573;-68
2022/01/04 04:27:38;;;;;;;10.77;9.23;;;6.60;99.90;;;;;;5075244;28;20620;-68
2022/01/04 04:30:05;;;;;;;11.70;9.37;;;6.60;99.90;;;;;;5075461;28;20170;-68
2022/01/04 04:32:30;;;;;;;11.90;9.37;;;6.60;99.90;;;;;;5073985;28;20670;-67
2022/01/04 04:34:57;;;;;;;10.57;9.10;;;6.60;99.90;;;;;;5075604;28;20166;-68
2022/01/04 04:37:23;;;;;;;11.20;8.97;;;6.60;99.90;;;;;;5075277;28;20170;-68
2022/01/04 04:39:49;;;;;;;12.53;9.13;;;6.60;99.90;;;;;;5075267;28;20170;-67
2022/01/04 04:42:14;;;;;;;11.90;9.33;;;6.60;99.90;;;;;;5075598;28;20193;-68
2022/01/04 04:44:40;;;;;;;13.53;9.37;;;6.60;99.90;;;;;;5075148;28;20170;-67
2022/01/04 04:47:06;;;;;;;12.10;9.03;;;6.60;99.90;;;;;;5075114;28;20197;-68
2022/01/04 04:49:32;;;;;;;10.20;8.10;;;6.60;99.90;;;;;;5075341;28;20170;-67
2022/01/04 04:51:59;;;;;;;13.00;9.47;;;6.60;99.90;;;;;;5075179;28;20190;-68
2022/01/04 04:54:26;;;;;;;10.77;9.00;;;6.60;99.90;;;;;;5074883;28;20172;-67
2022/01/04 04:56:52;;;;;;;11.33;9.07;;;6.60;99.90;;;;;;5074815;28;20182;-67
2022/01/04 04:59:17;;;;;;;12.43;9.83;;;6.50;99.90;;;;;;5074746;28;20258;-67
2022/01/04 05:01:43;;;;;;;11.63;8.30;;;6.50;99.90;;;;;;5073333;28;20200;-67
2022/01/04 05:04:09;;;;;;;11.83;8.63;;;6.50;99.90;;;;;;5075194;28;20185;-67
2022/01/04 05:06:35;;;;;;;10.63;9.07;;;6.50;99.90;;;;;;5073247;28;20181;-67
2022/01/04 05:09:00;;;;;;;10.53;8.30;;;6.60;99.90;;;;;;5074508;28;20181;-67
2022/01/04 05:11:26;;;;;;;11.63;8.90;;;6.60;99.90;;;;;;5074470;28;20596;-67
2022/01/04 05:13:52;;;;;;;10.77;8.40;;;6.60;99.90;;;;;;5074343;28;20532;-67
2022/01/04 05:16:18;;;;;;;11.53;8.67;;;6.60;99.90;;;;;;5073121;28;20185;-67
2022/01/04 05:18:44;;;;;;;11.10;8.93;;;6.50;99.90;;;;;;5074300;28;20542;-67
2022/01/04 05:21:10;;;;;;;10.40;8.20;;;6.60;99.90;;;;;;5074243;28;20614;-67
2022/01/04 05:23:36;;;;;;;8.97;8.07;;;6.50;99.90;;;;;;5072860;28;20193;-67
2022/01/04 05:26:02;;;;;;;14.33;9.97;;;6.50;99.90;;;;;;5074297;28;20201;-67
2022/01/04 05:28:28;;;;;;;15.23;8.77;;;6.50;99.90;;;;;;5071887;28;20292;-67
2022/01/04 05:30:54;;;;;;;13.60;9.63;;;6.50;99.90;;;;;;5074327;28;20233;-68
2022/01/04 05:33:19;;;;;;;13.27;8.87;;;6.50;99.90;;;;;;5074068;28;20556;-68
2022/01/04 05:35:47;;;;;;;10.83;8.50;;;6.50;99.90;;;;;;5074035;28;20222;-67
2022/01/04 05:38:13;;;;;;;11.87;8.67;;;6.50;99.90;;;;;;5074545;28;20681;-67
2022/01/04 05:40:39;;;;;;;11.93;9.47;;;6.50;99.90;;;;;;5074189;28;20158;-67
2022/01/04 05:43:04;;;;;;;13.33;9.50;;;6.50;99.90;;;;;;5073846;28;20225;-67
2022/01/04 05:45:31;;;;;;;11.13;8.83;;;6.50;99.90;;;;;;5073811;28;20178;-67
2022/01/04 05:47:57;;;;;;;12.40;9.10;;;6.40;99.90;;;;;;5074059;28;20193;-67
2022/01/04 05:50:23;;;;;;;18.50;11.63;;;6.40;99.90;;;;;;5073791;28;20166;-67
2022/01/04 05:52:49;;;;;;;15.43;10.70;;;6.40;99.90;;;;;;5073982;28;20619;-67
2022/01/04 05:55:14;;;;;;;14.07;10.63;;;6.40;99.90;;;;;;5073744;28;20190;-67
2022/01/04 05:57:40;;;;;;;16.60;11.40;;;6.40;99.90;;;;;;5072408;28;20662;-67
2022/01/04 06:00:07;;;;;;;15.50;11.63;;;6.40;99.90;;;;;;5074155;28;20654;-67
2022/01/04 06:02:33;;;;;;;20.10;11.07;;;6.40;99.90;;;;;;5073769;28;20205;-67
2022/01/04 06:04:59;;;;;;;17.17;11.43;;;6.40;99.90;;;;;;5073607;28;20173;-67
2022/01/04 06:07:24;;;;;;;16.87;10.93;;;6.40;99.90;;;;;;5073437;28;20202;-67
2022/01/04 06:09:52;;;;;;;15.20;11.63;;;6.50;99.90;;;;;;5072333;28;20181;-67
2022/01/04 06:14:54;;;;;;;21.10;12.50;;;6.50;99.90;;;;;;5073555;28;20199;-67
2022/01/04 06:17:29;;;;;;;20.13;12.00;;;6.50;99.90;;;;;;5073455;28;20184;-67
2022/01/04 06:19:57;;;;;;;19.27;13.10;;;6.50;99.90;;;;;;5073702;28;20160;-67
2022/01/04 06:22:22;;;;;;;20.47;13.17;;;6.50;99.90;;;;;;5073251;28;20189;-67
2022/01/04 06:24:48;;;;;;;19.17;12.73;;;6.50;99.90;;;;;;5072115;28;20185;-67
2022/01/04 06:27:14;;;;;;;20.43;13.43;;;6.50;99.90;;;;;;5071876;28;20216;-67
2022/01/04 06:29:41;;;;;;;18.70;12.20;;;6.50;99.90;;;;;;5073298;28;20180;-67
2022/01/04 06:32:08;;;;;;;18.27;12.73;;;6.50;99.90;;;;;;5073236;28;20628;-67
2022/01/04 06:34:35;;;;;;;18.77;11.70;;;6.50;99.90;;;;;;5073521;28;20549;-67
2022/01/04 06:37:00;;;;;;;18.33;11.43;;;6.50;99.90;;;;;;5071992;28;20188;-67
2022/01/04 06:39:26;;;;;;;19.00;12.77;;;6.50;99.90;;;;;;5073124;28;20181;-67
2022/01/04 06:41:52;;;;;;;16.73;12.07;;;6.50;99.90;;;;;;5073377;28;20182;-67
2022/01/04 06:44:18;;;;;;;15.27;10.93;;;6.40;99.90;;;;;;5073406;28;20200;-67
2022/01/04 06:46:45;;;;;;;14.83;10.53;;;6.40;99.90;;;;;;5072977;28;20174;-67
2022/01/04 06:49:15;;;;;;;15.30;10.77;;;6.40;99.90;;;;;;5073069;28;20166;-67
2022/01/04 06:51:41;;;;;;;19.17;12.43;;;6.40;99.90;;;;;;5073533;28;20220;-67
2022/01/04 06:54:09;;;;;;;16.37;11.27;;;6.40;99.90;;;;;;5073391;28;20169;-67
2022/01/04 06:56:34;;;;;;;16.33;11.23;;;6.40;99.90;;;;;;5073030;28;20247;-67
2022/01/04 06:59:00;;;;;;;16.83;11.83;;;6.40;99.90;;;;;;5073024;28;20654;-67
2022/01/04 07:01:26;;;;;;;18.50;12.40;;;6.30;99.90;;;;;;5071726;28;20209;-67
2022/01/04 07:03:52;;;;;;;15.40;11.40;;;6.30;99.90;;;;;;5073151;28;20204;-67
2022/01/04 07:06:17;;;;;;;18.50;12.10;;;6.30;99.90;;;;;;5072872;28;20564;-67
2022/01/04 07:08:43;;;;;;;19.20;12.53;;;6.30;99.90;;;;;;5073117;28;20208;-67
2022/01/04 07:11:09;;;;;;;19.57;12.57;;;6.30;99.90;;;;;;5072861;28;20216;-67
2022/01/04 07:13:35;;;;;;;17.93;12.07;;;6.30;99.90;;;;;;5073724;28;20208;-67
2022/01/04 07:16:00;;;;;;;16.63;11.47;;;6.30;99.90;;;;;;5071596;28;20189;-67
2022/01/04 07:18:26;;;;;;;17.93;12.83;;;6.30;99.90;;;;;;5072934;28;20539;-67
2022/01/04 07:20:52;;;;;;;17.07;12.07;;;6.40;99.90;;;;;;5073052;28;20158;-67
2022/01/04 07:23:18;;;;;;;19.33;12.50;;;6.30;99.90;;;;;;5073290;28;20205;-67
2022/01/04 07:25:44;;;;;;;16.53;12.07;;;6.30;99.90;;;;;;5072989;28;20704;-68
2022/01/04 07:28:10;;;;;;;18.70;12.40;;;6.30;99.90;;;;;;5072958;28;20190;-67
2022/01/04 07:30:36;;;;;;;24.67;16.27;;;6.30;99.90;;;;;;5071420;28;20650;-67
2022/01/04 07:33:02;;;;;;;59.50;35.33;;;6.30;99.90;;;;;;5071354;28;20205;-67
2022/01/04 07:35:28;;;;;;;33.73;21.03;;;6.40;99.90;;;;;;5071428;28;20163;-67
2022/01/04 07:37:54;;;;;;;32.87;21.23;;;6.30;99.90;;;;;;5072683;28;20669;-67
2022/01/04 07:40:20;;;;;;;23.07;14.43;;;6.30;99.90;;;;;;5072633;28;20162;-67
2022/01/04 07:42:47;;;;;;;18.43;12.70;;;6.30;99.90;;;;;;5072499;28;20193;-67
2022/01/04 07:45:12;;;;;;;21.20;13.90;;;6.30;99.90;;;;;;5071301;28;20260;-67
2022/01/04 07:47:41;;;;;;;20.60;13.87;;;6.30;99.90;;;;;;5071088;28;20344;-67
2022/01/04 07:50:07;;;;;;;22.03;13.80;;;6.30;99.90;;;;;;5071197;28;20200;-67
2022/01/04 07:52:33;;;;;;;20.47;13.10;;;6.30;99.90;;;;;;5075655;28;20213;-67
2022/01/04 07:55:00;;;;;;;18.63;12.37;;;6.30;99.90;;;;;;5076149;28;20563;-67
2022/01/04 07:57:26;;;;;;;21.43;13.93;;;6.30;99.90;;;;;;5074802;28;20170;-67
2022/01/04 07:59:52;;;;;;;18.97;12.57;;;6.40;99.90;;;;;;5075985;28;20181;-67
2022/01/04 08:02:17;;;;;;;17.67;12.43;;;6.40;99.90;;;;;;5075728;28;20223;-67
2022/01/04 08:04:43;;;;;;;20.43;12.83;;;6.40;99.90;;;;;;5075902;28;20177;-67
2022/01/04 08:07:09;;;;;;;21.30;13.53;;;6.40;99.90;;;;;;5074453;28;20205;-67
2022/01/04 08:09:35;;;;;;;18.57;12.43;;;6.40;99.90;;;;;;5074461;28;20196;-68
2022/01/04 08:12:00;;;;;;;22.70;13.33;;;6.40;99.90;;;;;;5075929;28;20627;-67
2022/01/04 08:14:26;;;;;;;21.07;13.07;;;6.40;99.90;;;;;;5075845;28;20162;-67
2022/01/04 08:16:53;;;;;;;20.97;14.67;;;6.40;99.90;;;;;;5076029;28;20177;-67
2022/01/04 08:19:19;;;;;;;22.63;14.33;;;6.40;99.90;;;;;;5074226;28;20174;-67
2022/01/04 08:21:45;;;;;;;25.63;14.63;;;6.40;99.90;;;;;;5075427;28;20227;-67
2022/01/04 08:24:10;;;;;;;22.27;14.00;;;6.40;99.90;;;;;;5074130;28;20669;-67
2022/01/04 08:26:36;;;;;;;23.77;13.63;;;6.40;99.90;;;;;;5074016;28;20242;-67
2022/01/04 08:29:02;;;;;;;22.43;14.80;;;6.40;99.90;;;;;;5073916;28;20206;-67
2022/01/04 08:31:28;;;;;;;21.03;13.80;;;6.40;99.90;;;;;;5075386;28;20210;-67
2022/01/04 08:33:54;;;;;;;24.20;14.27;;;6.40;99.90;;;;;;5075257;28;20225;-67
2022/01/04 08:36:22;;;;;;;23.73;13.53;;;6.40;99.90;;;;;;5075388;28;20249;-67
2022/01/04 08:38:48;;;;;;;28.13;15.80;;;6.40;99.90;;;;;;5074065;28;20178;-67
2022/01/04 08:41:13;;;;;;;21.63;14.60;;;6.40;99.90;;;;;;5075164;28;20182;-67
2022/01/04 08:43:39;;;;;;;25.53;15.13;;;6.40;99.90;;;;;;5073697;28;20201;-67
2022/01/04 08:46:05;;;;;;;22.83;14.97;;;6.50;99.90;;;;;;5073716;28;20209;-67
2022/01/04 08:48:31;;;;;;;24.03;14.97;;;6.50;99.90;;;;;;5074981;28;20202;-67
2022/01/04 08:50:56;;;;;;;24.97;14.93;;;6.50;99.90;;;;;;5074961;28;20720;-67
2022/01/04 08:53:22;;;;;;;25.03;15.23;;;6.50;99.90;;;;;;5074821;28;20215;-67
2022/01/04 08:55:48;;;;;;;25.83;15.80;;;6.50;99.90;;;;;;5073559;28;20174;-67
2022/01/04 08:58:14;;;;;;;24.47;15.03;;;6.50;99.90;;;;;;5074916;28;20205;-67
2022/01/04 09:00:40;;;;;;;23.03;14.90;;;6.50;99.90;;;;;;5073519;28;20186;-67
2022/01/04 09:03:05;;;;;;;25.67;15.57;;;6.50;99.90;;;;;;5073220;28;20603;-67
2022/01/04 09:05:31;;;;;;;27.73;15.63;;;6.50;99.90;;;;;;5073451;28;20227;-67
2022/01/04 09:07:57;;;;;;;21.00;14.03;;;6.50;99.90;;;;;;5074542;28;20202;-67
2022/01/04 09:10:24;;;;;;;21.90;13.47;;;6.50;99.90;;;;;;5074606;28;20192;-67
2022/01/04 09:13:00;;;;;;;25.57;14.10;;;6.50;99.90;;;;;;5073134;28;20193;-67
2022/01/04 09:15:33;;;;;;;23.37;13.90;;;6.50;99.90;;;;;;5073243;28;20236;-67
2022/01/04 09:20:47;;;;;;;18.37;12.50;;;6.50;99.90;;;;;;5074883;28;20219;-67
2022/01/04 09:23:18;;;;;;;20.40;12.53;;;6.50;99.90;;;;;;5074274;28;20202;-67
2022/01/04 09:25:47;;;;;;;22.00;13.70;;;6.60;99.90;;;;;;5072900;28;20194;-67
2022/01/04 09:28:13;;;;;;;21.23;13.63;;;6.60;99.90;;;;;;5074925;28;20193;-67
2022/01/04 09:30:40;;;;;;;22.37;13.83;;;6.60;99.90;;;;;;5073024;28;20226;-67
2022/01/04 09:33:06;;;;;;;21.93;13.97;;;6.60;99.90;;;;;;5072848;28;20677;-67
2022/01/04 09:35:33;;;;;;;25.40;14.47;;;6.70;99.90;;;;;;5074371;28;20198;-67
2022/01/04 09:37:59;;;;;;;24.73;16.03;;;6.70;99.90;;;;;;5074319;28;20177;-67
2022/01/04 09:40:24;;;;;;;18.80;11.83;;;6.70;99.90;;;;;;5074011;28;20173;-67
2022/01/04 09:42:51;;;;;;;14.63;10.93;;;6.80;99.90;;;;;;5074185;28;20251;-67
2022/01/04 09:45:17;;;;;;;18.03;11.60;;;6.70;99.90;;;;;;5074178;28;20154;-67
2022/01/04 09:47:43;;;;;;;16.33;10.80;;;6.70;99.90;;;;;;5072536;28;20248;-67
2022/01/04 09:50:10;;;;;;;16.93;11.33;;;6.70;99.90;;;;;;5072553;28;20638;-66
2022/01/04 09:52:46;;;;;;;16.10;10.07;;;6.80;99.90;;;;;;5073675;28;20185;-66
2022/01/04 09:55:13;;;;;;;17.77;10.37;;;6.80;99.90;;;;;;5072007;28;20622;-66
2022/01/04 09:57:40;;;;;;;14.67;10.77;;;6.80;99.90;;;;;;5073391;28;20203;-66
2022/01/04 10:00:07;;;;;;;16.80;10.70;;;6.80;99.90;;;;;;5071886;28;20552;-66
2022/01/04 10:02:33;;;;;;;13.97;9.80;;;6.80;99.90;;;;;;5073099;28;20292;-66
2022/01/04 10:05:12;;;;;;;16.23;10.63;;;6.80;99.90;;;;;;5073279;28;20721;-66
2022/01/04 10:07:38;;;;;;;16.30;10.30;;;6.90;99.90;;;;;;5072952;28;20197;-66
2022/01/04 10:10:05;;;;;;;16.20;10.60;;;6.80;99.90;;;;;;5071960;28;20200;-66
2022/01/04 10:12:54;;;;;;;14.93;10.70;;;6.80;99.90;;;;;;5072390;28;20239;-66
2022/01/04 10:15:38;;;;;;;14.73;9.97;;;6.80;99.90;;;;;;5073708;28;20562;-66
2022/01/04 10:18:20;;;;;;;16.93;10.97;;;6.80;99.90;;;;;;5072228;28;20688;-66
2022/01/04 10:21:07;;;;;;;20.23;12.20;;;6.80;99.90;;;;;;5073412;28;20158;-66
2022/01/04 10:23:47;;;;;;;16.00;10.53;;;6.80;99.90;;;;;;5072680;28;20619;-66
2022/01/04 10:26:13;;;;;;;18.70;11.10;;;6.80;99.90;;;;;;5073321;28;20726;-66
2022/01/04 10:28:43;;;;;;;15.43;10.47;;;6.90;99.90;;;;;;5066969;28;20209;-67
2022/01/04 10:31:16;;;;;;;18.27;10.37;;;6.80;99.90;;;;;;5062044;28;20170;-66
2022/01/04 10:33:42;;;;;;;19.13;11.40;;;6.80;99.90;;;;;;5053151;28;20194;-67
2022/01/04 10:36:13;;;;;;;16.33;11.43;;;6.80;99.90;;;;;;5051273;28;20670;-67
2022/01/04 10:38:40;;;;;;;19.87;12.53;;;6.80;99.90;;;;;;5053217;28;20183;-66
2022/01/04 10:41:27;;;;;;;20.27;12.53;;;6.90;99.90;;;;;;5053294;28;20155;-69
2022/01/04 10:44:03;;;;;;;18.90;11.63;;;6.90;99.90;;;;;;5052944;28;20690;-70
2022/01/04 10:46:31;;;;;;;15.37;10.83;;;6.90;99.90;;;;;;5053111;28;20162;-69
2022/01/04 10:48:57;;;;;;;19.33;11.87;;;6.90;99.90;;;;;;5051797;28;20292;-70
2022/01/04 10:51:23;;;;;;;18.50;11.73;;;6.90;99.90;;;;;;5051377;28;20790;-69
2022/01/04 10:54:00;;;;;;;17.90;12.30;;;6.90;99.90;;;;;;5053255;28;20558;-69
2022/01/04 10:56:34;;;;;;;18.17;11.67;;;6.90;99.90;;;;;;5053099;28;20229;-69
2022/01/04 10:59:03;;;;;;;19.10;12.47;;;6.90;99.90;;;;;;5051228;28;20320;-69
2022/01/04 11:01:37;;;;;;;19.63;12.73;;;6.90;99.90;;;;;;5053274;28;20194;-70
2022/01/04 11:04:03;;;;;;;19.20;12.03;;;6.90;99.90;;;;;;5053049;28;20190;-70
2022/01/04 11:06:30;;;;;;;17.60;11.57;;;6.90;99.90;;;;;;5052395;28;20185;-73
2022/01/04 11:08:57;;;;;;;16.70;11.50;;;6.90;99.90;;;;;;5052991;28;20197;-66
2022/01/04 11:11:24;;;;;;;17.60;12.50;;;6.90;99.90;;;;;;5053062;28;20225;-66
2022/01/04 11:13:53;;;;;;;18.73;11.67;;;6.90;99.90;;;;;;5052429;28;20319;-66
2022/01/04 11:16:23;;;;;;;19.40;11.10;;;7.00;99.90;;;;;;5051567;28;20293;-66
2022/01/04 11:18:52;;;;;;;20.37;11.67;;;7.00;99.90;;;;;;5050835;28;20655;-66
2022/01/04 11:21:31;;;;;;;15.67;10.83;;;6.90;99.90;;;;;;5051081;28;20175;-66
2022/01/04 11:23:57;;;;;;;15.17;10.70;;;7.00;99.90;;;;;;5052228;28;20221;-66
2022/01/04 11:26:23;;;;;;;16.50;10.87;;;7.00;99.90;;;;;;5054198;28;20555;-66
2022/01/04 11:28:50;;;;;;;14.87;10.43;;;6.90;99.90;;;;;;5056693;28;20293;-66
2022/01/04 11:31:30;;;;;;;15.13;9.80;;;7.00;99.90;;;;;;5057557;28;20189;-67
2022/01/04 11:34:11;;;;;;;16.63;10.20;;;7.00;99.90;;;;;;5056930;28;20198;-66
2022/01/04 11:36:44;;;;;;;15.63;10.53;;;7.00;99.90;;;;;;5056745;28;20637;-70
2022/01/04 11:39:31;;;;;;;12.83;8.57;;;7.00;99.90;;;;;;5056790;28;20213;-66
2022/01/04 11:42:00;;;;;;;11.97;8.87;;;7.00;99.90;;;;;;5056325;28;20228;-66
2022/01/04 11:44:28;;;;;;;13.27;10.00;;;6.90;99.90;;;;;;5055070;28;20178;-66
2022/01/04 11:47:09;;;;;;;15.10;10.27;;;7.00;99.90;;;;;;5054923;28;20262;-66
2022/01/04 11:49:38;;;;;;;14.13;9.83;;;7.00;99.90;;;;;;5056791;28;20161;-66
2022/01/04 11:52:09;;;;;;;17.27;10.80;;;7.00;99.90;;;;;;5055163;28;20244;-66
2022/01/04 11:54:35;;;;;;;14.67;9.00;;;7.00;99.90;;;;;;5056575;28;20174;-66
2022/01/04 11:57:02;;;;;;;14.73;10.20;;;7.00;99.90;;;;;;5056315;28;20174;-66
2022/01/04 11:59:40;;;;;;;20.73;12.40;;;7.00;99.90;;;;;;5054750;28;20170;-66
2022/01/04 12:02:32;;;;;;;20.53;11.63;;;7.00;99.90;;;;;;5056231;28;20692;-66
2022/01/04 12:05:04;;;;;;;14.23;10.93;;;7.10;99.90;;;;;;5056080;28;20174;-66
2022/01/04 12:07:48;;;;;;;17.33;12.53;;;7.10;99.90;;;;;;5056302;28;20228;-66
2022/01/04 12:10:22;;;;;;;19.90;12.63;;;7.10;99.90;;;;;;5056085;28;20182;-66
2022/01/04 12:13:14;;;;;;;22.23;14.37;;;7.10;99.90;;;;;;5056006;28;20189;-66
2022/01/04 12:15:47;;;;;;;21.77;14.27;;;7.10;99.90;;;;;;5054467;28;20650;-66
2022/01/04 12:18:34;;;;;;;24.63;16.07;;;7.10;99.90;;;;;;5055717;28;20175;-66
2022/01/04 12:21:02;;;;;;;27.07;14.57;;;7.10;99.90;;;;;;5055746;28;20158;-66
2022/01/04 12:23:29;;;;;;;24.37;14.47;;;7.10;99.90;;;;;;5054448;28;20202;-66
2022/01/04 12:26:04;;;;;;;22.57;13.87;;;7.10;99.90;;;;;;5055420;28;20304;-66
2022/01/04 12:28:33;;;;;;;26.43;15.00;;;7.10;99.90;;;;;;5055453;28;20224;-66
2022/01/04 12:31:17;;;;;;;22.03;14.97;;;7.10;99.90;;;;;;5055439;28;20175;-66
2022/01/04 12:33:48;;;;;;;24.70;14.17;;;7.10;99.90;;;;;;5054103;28;20198;-66
2022/01/04 12:36:27;;;;;;;24.53;14.90;;;7.20;99.90;;;;;;5055288;28;20211;-66
2022/01/04 12:38:55;;;;;;;27.13;15.67;;;7.20;99.90;;;;;;5055737;28;20213;-66
2022/01/04 12:41:21;;;;;;;21.77;15.23;;;7.20;99.90;;;;;;5055591;28;20224;-66
2022/01/04 12:43:50;;;;;;;25.47;14.73;;;7.20;99.90;;;;;;5053847;28;20744;-66
2022/01/04 12:46:25;;;;;;;22.17;15.53;;;7.20;99.90;;;;;;5055094;28;20543;-66
2022/01/04 12:48:55;;;;;;;24.30;15.90;;;7.20;99.90;;;;;;5055321;28;20177;-66
2022/01/04 12:51:25;;;;;;;26.00;16.33;;;7.20;99.90;;;;;;5055304;28;20170;-66
2022/01/04 12:53:54;;;;;;;26.07;15.90;;;7.20;99.90;;;;;;5054902;28;20197;-66